Sheyenne, North Dakota
Current Conditions -  °F | °C
As of 4:35 PM on Monday 24 Nov 2014 (Local Time) from KDVL Reporting Station
Clear Clear  
Wind Chill: -13°   Ceiling: Unl
Heat Index: -8°   Visibility: 10mi
Dew Point: -19°   Wind: 7mph
Humidity: 42%   Direction: 330°NNW
Pressure: 29.92"   Gusts: NA
Location:  47.83°N, 99.12°W
Report Text: KDVL 242235Z AUTO 33006KT 10SM CLR M08/M19 A2992 RMK AO1
Loading
Personal Weather Stations






























Interactive Weather Map New forecast layout! Learn more

10-Day Weather Forecast

Advertisements
Track Severe Weather on mobile